createdAt,value
2019-02-11T00:00:38.541Z,7.70
2019-02-11T00:04:51.259Z,7.70
2019-02-11T00:09:05.344Z,7.70
2019-02-11T00:13:18.195Z,7.70
2019-02-11T00:17:30.760Z,7.70
2019-02-11T00:21:43.171Z,7.70
2019-02-11T00:25:55.485Z,7.70
2019-02-11T00:30:08.584Z,7.70
2019-02-11T00:34:20.933Z,7.60
2019-02-11T00:38:33.341Z,7.50
2019-02-11T00:42:46.857Z,7.40
2019-02-11T00:46:59.675Z,7.40
2019-02-11T00:51:12.138Z,7.40
2019-02-11T00:55:24.633Z,7.30
2019-02-11T00:59:37.496Z,7.20
2019-02-11T01:03:49.895Z,7.20
2019-02-11T01:08:02.209Z,7.20
2019-02-11T01:12:15.273Z,7.00
2019-02-11T01:16:27.704Z,7.00
2019-02-11T01:20:40.120Z,7.00
2019-02-11T01:24:52.971Z,7.00
2019-02-11T01:29:05.421Z,7.00
2019-02-11T01:33:17.831Z,7.20
2019-02-11T01:37:30.245Z,7.40
2019-02-11T01:41:43.132Z,7.50
2019-02-11T01:45:55.643Z,7.50
2019-02-11T01:50:09.188Z,7.50
2019-02-11T01:54:21.436Z,7.50
2019-02-11T01:58:34.329Z,7.50
2019-02-11T02:02:46.947Z,7.50
2019-02-11T02:06:59.189Z,7.60
2019-02-11T02:11:12.437Z,7.50
2019-02-11T02:15:24.908Z,7.60
2019-02-11T02:19:37.828Z,7.60
2019-02-11T02:23:50.196Z,7.60
2019-02-11T02:28:02.599Z,7.70
2019-02-11T02:32:16.516Z,7.70
2019-02-11T02:36:29.084Z,7.60
2019-02-11T02:40:41.498Z,7.60
2019-02-11T02:44:54.545Z,7.60
2019-02-11T02:49:07.140Z,7.50
2019-02-11T02:53:19.451Z,7.40
2019-02-11T02:57:32.353Z,7.30
2019-02-11T03:01:44.865Z,7.20
2019-02-11T03:05:57.687Z,7.10
2019-02-11T03:10:10.347Z,7.00
2019-02-11T03:14:22.665Z,7.00
2019-02-11T03:18:35.508Z,7.00
2019-02-11T03:22:48.013Z,7.10
2019-02-11T03:27:00.424Z,7.10
2019-02-11T03:31:13.420Z,7.20
2019-02-11T03:35:25.968Z,7.40
2019-02-11T03:39:38.288Z,7.50
2019-02-11T03:43:51.168Z,7.60
2019-02-11T03:48:03.826Z,7.60
2019-02-11T03:52:17.373Z,7.80
2019-02-11T03:56:29.346Z,7.90
2019-02-11T04:00:42.435Z,7.90
2019-02-11T04:04:54.936Z,8.00
2019-02-11T04:09:07.995Z,8.00
2019-02-11T04:13:20.571Z,8.10
2019-02-11T04:17:32.995Z,8.10
2019-02-11T04:21:45.468Z,8.10
2019-02-11T04:25:58.195Z,8.10
2019-02-11T04:30:10.853Z,8.10
2019-02-11T04:34:23.156Z,8.20
2019-02-11T04:38:35.952Z,8.20
2019-02-11T04:42:48.422Z,8.20
2019-02-11T04:47:00.824Z,8.20
2019-02-11T04:51:13.672Z,8.20
2019-02-11T04:55:26.170Z,8.20
2019-02-11T04:59:38.685Z,8.20
2019-02-11T05:03:51.539Z,8.10
2019-02-11T05:08:04.131Z,8.00
2019-02-11T05:12:16.543Z,7.90
2019-02-11T05:16:29.004Z,7.90
2019-02-11T05:20:41.817Z,7.90
2019-02-11T05:24:54.414Z,7.80
2019-02-11T05:29:06.815Z,7.90
2019-02-11T05:33:19.177Z,7.90
2019-02-11T05:37:31.920Z,7.90
2019-02-11T05:41:45.633Z,7.90
2019-02-11T05:45:58.123Z,7.90
2019-02-11T05:50:11.485Z,8.00
2019-02-11T05:54:23.875Z,8.00
2019-02-11T05:58:36.296Z,8.10
2019-02-11T06:02:49.196Z,8.20
2019-02-11T06:07:01.633Z,8.20
2019-02-11T06:11:14.623Z,8.20
2019-02-11T06:15:27.282Z,8.30
2019-02-11T06:19:40.273Z,8.30
2019-02-11T06:23:52.804Z,8.30
2019-02-11T06:28:05.049Z,8.30
2019-02-11T06:32:17.932Z,8.40
2019-02-11T06:36:30.389Z,8.40
2019-02-11T06:40:43.369Z,8.40
2019-02-11T06:44:55.935Z,8.50
2019-02-11T06:49:08.249Z,8.50
2019-02-11T06:53:21.306Z,8.60
2019-02-11T06:57:33.808Z,8.70
2019-02-11T07:01:46.209Z,8.70
2019-02-11T07:05:59.168Z,8.70
2019-02-11T07:10:11.872Z,8.60
2019-02-11T07:14:24.749Z,8.70
2019-02-11T07:18:37.309Z,8.70
2019-02-11T07:22:50.954Z,8.70
2019-02-11T07:27:03.431Z,8.80
2019-02-11T07:31:16.257Z,8.80
2019-02-11T07:35:28.772Z,8.80
2019-02-11T07:39:41.595Z,8.80
2019-02-11T07:44:02.989Z,8.80
2019-02-11T07:48:15.483Z,8.70
2019-02-11T07:52:28.737Z,8.70
2019-02-11T07:56:41.301Z,8.70
2019-02-11T08:00:54.353Z,8.80
2019-02-11T08:05:06.798Z,8.80
2019-02-11T08:09:19.777Z,8.80
2019-02-11T08:13:32.230Z,8.90
2019-02-11T08:17:46.779Z,9.00
2019-02-11T08:21:59.716Z,9.10
2019-02-11T08:26:12.034Z,9.10
2019-02-11T08:30:24.983Z,9.20
2019-02-11T08:34:37.479Z,9.20
2019-02-11T08:38:49.798Z,9.20
2019-02-11T08:43:02.203Z,9.20
2019-02-11T08:47:14.989Z,9.30
2019-02-11T08:51:27.458Z,9.40
2019-02-11T08:55:39.857Z,9.50
2019-02-11T08:59:52.717Z,9.60
2019-02-11T09:04:05.414Z,9.70
2019-02-11T09:08:18.396Z,9.70
2019-02-11T09:12:30.863Z,9.80
2019-02-11T09:16:43.176Z,9.80
2019-02-11T09:20:56.163Z,10.00
2019-02-11T09:25:09.748Z,10.00
2019-02-11T09:29:22.334Z,10.00
2019-02-11T09:33:35.152Z,10.00
2019-02-11T09:37:47.611Z,10.10
2019-02-11T09:42:00.012Z,10.20
2019-02-11T09:46:12.918Z,10.20
2019-02-11T09:50:41.876Z,10.30
2019-02-11T09:54:54.376Z,10.50
2019-02-11T09:59:07.357Z,10.50
2019-02-11T10:03:19.995Z,10.50
2019-02-11T10:07:32.424Z,10.50
2019-02-11T10:11:45.318Z,10.60
2019-02-11T10:15:57.576Z,10.70
2019-02-11T10:20:10.985Z,10.70
2019-02-11T10:24:23.335Z,10.70
2019-02-11T10:28:35.631Z,10.70
2019-02-11T10:32:48.494Z,10.70
2019-02-11T10:37:00.981Z,10.70
2019-02-11T10:41:13.289Z,10.70
2019-02-11T10:45:25.713Z,10.80
2019-02-11T10:49:38.418Z,10.80
2019-02-11T10:53:51.455Z,11.00
2019-02-11T10:58:04.196Z,11.20
2019-02-11T11:02:16.801Z,11.30
2019-02-11T11:06:29.699Z,11.30
2019-02-11T11:10:42.149Z,11.40
2019-02-11T11:14:54.565Z,11.50
2019-02-11T11:19:07.353Z,11.60
2019-02-11T11:23:19.809Z,11.80
2019-02-11T11:27:32.117Z,11.90
2019-02-11T11:31:45.016Z,11.90
2019-02-11T11:35:57.535Z,11.70
2019-02-11T11:40:10.967Z,11.60
2019-02-11T11:44:23.314Z,11.40
2019-02-11T11:48:36.106Z,11.40
2019-02-11T11:52:48.660Z,11.40
2019-02-11T11:57:01.072Z,11.40
2019-02-11T12:01:18.904Z,11.40
2019-02-11T12:05:28.375Z,11.40
2019-02-11T12:09:43.781Z,11.90
2019-02-11T12:13:55.051Z,12.10
2019-02-11T12:18:07.459Z,12.10
2019-02-11T12:22:20.343Z,12.10
2019-02-11T12:26:32.812Z,12.00
2019-02-11T12:30:46.290Z,12.10
2019-02-11T12:34:58.671Z,12.30
2019-02-11T12:39:11.609Z,12.50
2019-02-11T12:43:24.200Z,12.70
2019-02-11T12:47:36.615Z,12.70
2019-02-11T12:51:49.413Z,12.70
2019-02-11T12:56:02.881Z,12.60
2019-02-11T13:00:18.075Z,12.50
2019-02-11T13:04:30.756Z,12.40
2019-02-11T13:08:43.645Z,12.50
2019-02-11T13:12:56.252Z,12.60
2019-02-11T13:17:15.478Z,12.40
2019-02-11T13:21:22.963Z,12.40
2019-02-11T13:25:35.433Z,12.20
2019-02-11T13:29:48.415Z,12.50
2019-02-11T13:34:00.971Z,12.90
2019-02-11T13:38:13.287Z,13.30
2019-02-11T13:42:26.889Z,13.40
2019-02-11T13:46:39.726Z,13.20
2019-02-11T13:50:52.382Z,13.10
2019-02-11T13:55:04.981Z,13.00
2019-02-11T13:59:17.578Z,12.90
2019-02-11T14:03:30.042Z,12.90
2019-02-11T14:07:42.506Z,13.00
2019-02-11T14:11:56.050Z,12.90
2019-02-11T14:16:08.665Z,12.70
2019-02-11T14:20:22.926Z,12.70
2019-02-11T14:24:35.779Z,12.50
2019-02-11T14:28:49.607Z,12.50
2019-02-11T14:33:02.272Z,12.40
2019-02-11T14:37:15.051Z,12.50
2019-02-11T14:41:27.409Z,12.50
2019-02-11T14:45:42.707Z,12.70
2019-02-11T14:49:58.383Z,13.10
2019-02-11T14:54:11.010Z,13.00
2019-02-11T14:58:23.407Z,12.90
2019-02-11T15:02:35.868Z,12.80
2019-02-11T15:06:48.679Z,12.50
2019-02-11T15:11:01.171Z,12.70
2019-02-11T15:15:13.470Z,12.90
2019-02-11T15:19:26.829Z,12.80
2019-02-11T15:23:39.232Z,12.60
2019-02-11T15:27:51.925Z,12.50
2019-02-11T15:32:04.492Z,12.50
2019-02-11T15:36:16.996Z,12.40
2019-02-11T15:40:29.752Z,12.40
2019-02-11T15:44:42.321Z,12.30
2019-02-11T15:48:54.648Z,12.30
2019-02-11T15:53:07.540Z,12.30
2019-02-11T15:57:19.995Z,12.30
2019-02-11T16:01:32.777Z,12.20
2019-02-11T16:05:49.643Z,12.20
2019-02-11T16:09:59.444Z,12.10
2019-02-11T16:14:12.172Z,12.10
2019-02-11T16:18:27.742Z,12.00
2019-02-11T16:22:42.210Z,11.90
2019-02-11T16:26:54.893Z,12.00
2019-02-11T16:31:07.297Z,12.00
2019-02-11T16:35:19.620Z,12.00
2019-02-11T16:39:32.400Z,12.00
2019-02-11T16:43:45.993Z,11.90
2019-02-11T16:47:58.592Z,11.80
2019-02-11T16:52:12.049Z,11.80
2019-02-11T16:56:24.352Z,11.80
2019-02-11T17:00:37.244Z,11.60
2019-02-11T17:04:49.788Z,11.60
2019-02-11T17:09:02.956Z,11.50
2019-02-11T17:13:15.453Z,11.50
2019-02-11T17:17:27.860Z,11.40
2019-02-11T17:21:40.618Z,11.30
2019-02-11T17:25:53.249Z,11.30
2019-02-11T17:30:07.936Z,11.30
2019-02-11T17:34:20.402Z,11.20
2019-02-11T17:38:33.285Z,11.20
2019-02-11T17:42:45.741Z,11.10
2019-02-11T17:46:58.152Z,11.10
2019-02-11T17:51:11.102Z,11.00
2019-02-11T17:55:23.708Z,10.90
2019-02-11T17:59:39.410Z,10.90
2019-02-11T18:03:55.749Z,10.90
2019-02-11T18:08:11.865Z,10.80
2019-02-11T18:12:28.280Z,10.80
2019-02-11T18:16:45.862Z,10.80
2019-02-11T18:21:03.989Z,10.60
2019-02-11T18:25:22.285Z,10.60
2019-02-11T18:29:39.867Z,10.60
2019-02-11T18:34:01.140Z,10.50
2019-02-11T18:38:17.045Z,10.50
2019-02-11T18:42:33.983Z,10.50
2019-02-11T18:46:52.353Z,10.50
2019-02-11T18:51:13.685Z,10.40
2019-02-11T18:55:26.296Z,10.40
2019-02-11T18:59:39.021Z,10.40
2019-02-11T19:03:51.763Z,10.40
2019-02-11T19:08:04.220Z,10.30
2019-02-11T19:12:17.224Z,10.20
2019-02-11T19:16:29.641Z,10.20
2019-02-11T19:20:42.625Z,10.20
2019-02-11T19:24:55.156Z,10.20
2019-02-11T19:29:08.081Z,10.20
2019-02-11T19:33:20.648Z,10.20
2019-02-11T19:37:33.046Z,10.20
2019-02-11T19:41:45.937Z,10.20
2019-02-11T19:45:58.392Z,10.10
2019-02-11T19:50:12.884Z,10.10
2019-02-11T19:54:25.562Z,10.00
2019-02-11T19:58:37.889Z,9.80
2019-02-11T20:02:52.104Z,9.90
2019-02-11T20:07:04.808Z,9.90
2019-02-11T20:11:17.929Z,9.90
2019-02-11T20:15:30.425Z,9.90
2019-02-11T20:19:43.407Z,9.90
2019-02-11T20:23:55.870Z,9.90
2019-02-11T20:28:08.440Z,9.90
2019-02-11T20:32:21.164Z,9.90
2019-02-11T20:36:33.637Z,9.90
2019-02-11T20:40:46.621Z,9.90
2019-02-11T20:44:59.177Z,9.90
2019-02-11T20:49:12.161Z,9.90
2019-02-11T20:53:23.766Z,9.90
2019-02-11T20:57:36.468Z,9.80
2019-02-11T21:01:48.837Z,9.80
2019-02-11T21:06:01.885Z,9.80
2019-02-11T21:10:15.487Z,9.70
2019-02-11T21:14:28.029Z,9.70
2019-02-11T21:18:40.333Z,9.60
2019-02-11T21:22:53.745Z,9.50
2019-02-11T21:27:06.341Z,9.30
2019-02-11T21:31:19.147Z,9.20
2019-02-11T21:35:31.654Z,9.20
2019-02-11T21:39:44.631Z,9.20
2019-02-11T21:43:57.202Z,9.20
2019-02-11T21:48:09.600Z,9.30
2019-02-11T21:52:22.493Z,9.30
2019-02-11T21:56:35.052Z,9.20
2019-02-11T22:00:48.131Z,9.10
2019-02-11T22:05:00.604Z,8.90
2019-02-11T22:09:13.693Z,8.80
2019-02-11T22:13:26.252Z,8.70
2019-02-11T22:17:38.665Z,8.70
2019-02-11T22:21:50.986Z,8.80
2019-02-11T22:26:03.760Z,8.80
2019-02-11T22:30:17.924Z,8.70
2019-02-11T22:34:30.337Z,8.70
2019-02-11T22:38:42.952Z,8.50
2019-02-11T22:42:55.318Z,8.40
2019-02-11T22:47:07.722Z,8.30
2019-02-11T22:51:20.611Z,8.30
2019-02-11T22:55:33.068Z,8.40
2019-02-11T22:59:45.486Z,8.40
2019-02-11T23:03:58.635Z,8.40
2019-02-11T23:08:11.128Z,8.30
2019-02-11T23:12:24.224Z,8.40
2019-02-11T23:16:36.584Z,8.30
2019-02-11T23:20:52.027Z,8.20
2019-02-11T23:25:03.318Z,8.10
2019-02-11T23:29:15.876Z,8.10
2019-02-11T23:33:28.183Z,8.10
2019-02-11T23:37:40.655Z,8.10
2019-02-11T23:41:53.385Z,8.00
2019-02-11T23:46:05.936Z,8.00
2019-02-11T23:50:18.838Z,7.80
2019-02-11T23:54:32.772Z,7.80
2019-02-11T23:58:45.312Z,7.80
